Aviation Digital Data Service (ADDS)

Output produced by METARs form (1425 UTC 28 November 2014)
found at http://www.aviationweather.gov/adds/metars/
 
KATL 281354Z 2814/2918 34007KT P6SM SKC 
     FM282100 26005KT P6SM SKC 
     FM290000 20003KT P6SM SKC 
     FM291600 20006KT P6SM SKC